GLO9042 SBCF-SBMO
Flight info
| Callsign | GLO9042 |
|---|---|
| Flight time | 1h 55m |
| Altitude | 35000 |
| Route | ILPIR UZ23 ANDIG |
| Aircraft | B738/M-SDE2E3FGHIRWXY/LB1 |
Departure
| Time | 2026-04-24 11:09 |
|---|---|
| Airport | Tancredo Neves International Airport (SBCF) |
Arrival
| Time | 2026-04-24 13:04 |
|---|---|
| Airport | Zumbi dos Palmares International Airport (SBMO) |
| Time | Latitude | Longitude | Altitude | Speed | Heading |
|---|---|---|---|---|---|
| 2026-04-24 10:39 | -19.63351 | -43.96371 | 2751 ft | 0 kts | 39° |
| 2026-04-24 10:58 | -19.63352 | -43.96372 | 2751 ft | 2 kts | 39° |
| 2026-04-24 10:58 | -19.63373 | -43.96386 | 2751 ft | 4 kts | 6° |
| 2026-04-24 10:59 | -19.63395 | -43.96380 | 2752 ft | 4 kts | 307° |
| 2026-04-24 10:59 | -19.63399 | -43.96374 | 2751 ft | 3 kts | 297° |
| 2026-04-24 11:02 | -19.63399 | -43.96375 | 2751 ft | 1 kts | 297° |
| 2026-04-24 11:02 | -19.63382 | -43.96407 | 2752 ft | 9 kts | 304° |
| 2026-04-24 11:02 | -19.63336 | -43.96458 | 2753 ft | 11 kts | 318° |
| 2026-04-24 11:03 | -19.63271 | -43.96515 | 2754 ft | 12 kts | 318° |
| 2026-04-24 11:03 | -19.63201 | -43.96581 | 2753 ft | 14 kts | 314° |
| 2026-04-24 11:03 | -19.63231 | -43.96668 | 2751 ft | 13 kts | 227° |
| 2026-04-24 11:03 | -19.63252 | -43.96753 | 2753 ft | 13 kts | 303° |
| 2026-04-24 11:04 | -19.63177 | -43.96827 | 2753 ft | 17 kts | 319° |
| 2026-04-24 11:04 | -19.63080 | -43.96916 | 2752 ft | 19 kts | 319° |
| 2026-04-24 11:04 | -19.62984 | -43.97006 | 2752 ft | 18 kts | 319° |
| 2026-04-24 11:04 | -19.62892 | -43.97092 | 2753 ft | 17 kts | 319° |
| 2026-04-24 11:05 | -19.62802 | -43.97175 | 2753 ft | 17 kts | 319° |
| 2026-04-24 11:05 | -19.62716 | -43.97254 | 2753 ft | 16 kts | 319° |
| 2026-04-24 11:05 | -19.62633 | -43.97331 | 2752 ft | 16 kts | 318° |
| 2026-04-24 11:05 | -19.62554 | -43.97405 | 2754 ft | 15 kts | 319° |
| 2026-04-24 11:06 | -19.62477 | -43.97475 | 2752 ft | 14 kts | 319° |
| 2026-04-24 11:06 | -19.62404 | -43.97544 | 2754 ft | 14 kts | 320° |
| 2026-04-24 11:06 | -19.62334 | -43.97607 | 2753 ft | 13 kts | 320° |
| 2026-04-24 11:06 | -19.62267 | -43.97670 | 2753 ft | 13 kts | 317° |
| 2026-04-24 11:07 | -19.62272 | -43.97774 | 2752 ft | 3 kts | 211° |
| 2026-04-24 11:07 | -19.62310 | -43.97785 | 2752 ft | 9 kts | 192° |
| 2026-04-24 11:07 | -19.62377 | -43.97791 | 2752 ft | 8 kts | 158° |
| 2026-04-24 11:08 | -19.62392 | -43.97780 | 2750 ft | 0 kts | 141° |
| 2026-04-24 11:08 | -19.62477 | -43.97702 | 2750 ft | 49 kts | 139° |
| 2026-04-24 11:08 | -19.62918 | -43.97295 | 2752 ft | 117 kts | 139° |
| 2026-04-24 11:08 | -19.63683 | -43.96585 | 2780 ft | 170 kts | 139° |
| 2026-04-24 11:09 | -19.64576 | -43.95751 | 3540 ft | 161 kts | 139° |
| 2026-04-24 11:09 | -19.65384 | -43.94997 | 4461 ft | 158 kts | 140° |
| 2026-04-24 11:09 | -19.66306 | -43.94162 | 4808 ft | 190 kts | 140° |
| 2026-04-24 11:09 | -19.67166 | -43.92970 | 5047 ft | 221 kts | 111° |
| 2026-04-24 11:10 | -19.67190 | -43.91285 | 5402 ft | 243 kts | 75° |
| 2026-04-24 11:10 | -19.66511 | -43.89543 | 5884 ft | 263 kts | 66° |
| 2026-04-24 11:10 | -19.65814 | -43.87745 | 6841 ft | 264 kts | 70° |
| 2026-04-24 11:10 | -19.65246 | -43.85879 | 7755 ft | 268 kts | 73° |
| 2026-04-24 11:11 | -19.64731 | -43.83960 | 8522 ft | 273 kts | 74° |
| 2026-04-24 11:11 | -19.64236 | -43.82003 | 8874 ft | 275 kts | 75° |
| 2026-04-24 11:11 | -19.63750 | -43.80017 | 8959 ft | 281 kts | 75° |
| 2026-04-24 11:11 | -19.63269 | -43.78016 | 8964 ft | 279 kts | 75° |
| 2026-04-24 11:12 | -19.62794 | -43.76029 | 8969 ft | 278 kts | 75° |
| 2026-04-24 11:12 | -19.62318 | -43.74047 | 8951 ft | 277 kts | 75° |
| 2026-04-24 11:12 | -19.61720 | -43.72116 | 8941 ft | 276 kts | 61° |
| 2026-04-24 11:12 | -19.60551 | -43.70480 | 9286 ft | 281 kts | 49° |
| 2026-04-24 11:13 | -19.59250 | -43.68907 | 9932 ft | 287 kts | 50° |
| 2026-04-24 11:13 | -19.57964 | -43.67277 | 10199 ft | 289 kts | 51° |
| 2026-04-24 11:13 | -19.56684 | -43.65628 | 10194 ft | 288 kts | 51° |
| 2026-04-24 11:13 | -19.55434 | -43.64013 | 10199 ft | 286 kts | 51° |
| 2026-04-24 11:14 | -19.54169 | -43.62381 | 10207 ft | 285 kts | 51° |
| 2026-04-24 11:14 | -19.52908 | -43.60754 | 10213 ft | 285 kts | 51° |
| 2026-04-24 11:14 | -19.51645 | -43.59135 | 10219 ft | 285 kts | 50° |
| 2026-04-24 11:14 | -19.50316 | -43.57831 | 10232 ft | 291 kts | 37° |
| 2026-04-24 11:15 | -19.48566 | -43.56591 | 10418 ft | 314 kts | 33° |
| 2026-04-24 11:15 | -19.46642 | -43.55323 | 10636 ft | 335 kts | 32° |
| 2026-04-24 11:15 | -19.44632 | -43.53995 | 11186 ft | 344 kts | 32° |
| 2026-04-24 11:15 | -19.42595 | -43.52627 | 11854 ft | 348 kts | 33° |
| 2026-04-24 11:16 | -19.40551 | -43.51233 | 12517 ft | 352 kts | 33° |
| 2026-04-24 11:16 | -19.38481 | -43.49809 | 13160 ft | 356 kts | 33° |
| 2026-04-24 11:16 | -19.36389 | -43.48363 | 13761 ft | 361 kts | 33° |
| 2026-04-24 11:16 | -19.34272 | -43.46898 | 14369 ft | 366 kts | 33° |
| 2026-04-24 11:17 | -19.32130 | -43.45417 | 14977 ft | 369 kts | 33° |
| 2026-04-24 11:17 | -19.29985 | -43.43895 | 15549 ft | 374 kts | 36° |
| 2026-04-24 11:17 | -19.27873 | -43.42260 | 16088 ft | 378 kts | 37° |
| 2026-04-24 11:17 | -19.25766 | -43.40567 | 16648 ft | 382 kts | 38° |
| 2026-04-24 11:18 | -19.23646 | -43.38851 | 17191 ft | 386 kts | 38° |
| 2026-04-24 11:18 | -19.21525 | -43.37140 | 17712 ft | 390 kts | 38° |
| 2026-04-24 11:18 | -19.19356 | -43.35400 | 18231 ft | 393 kts | 38° |
| 2026-04-24 11:18 | -19.17135 | -43.33626 | 18727 ft | 397 kts | 38° |
| 2026-04-24 11:19 | -19.14941 | -43.31880 | 19201 ft | 401 kts | 37° |
| 2026-04-24 11:19 | -19.12695 | -43.30097 | 19664 ft | 405 kts | 37° |
| 2026-04-24 11:19 | -19.10429 | -43.28302 | 20104 ft | 408 kts | 37° |
| 2026-04-24 11:19 | -19.08143 | -43.26491 | 20568 ft | 412 kts | 37° |
| 2026-04-24 11:20 | -19.05839 | -43.24667 | 20980 ft | 415 kts | 37° |
| 2026-04-24 11:20 | -19.03514 | -43.22827 | 21407 ft | 419 kts | 37° |
| 2026-04-24 11:20 | -19.01176 | -43.20978 | 21812 ft | 421 kts | 37° |
| 2026-04-24 11:20 | -18.98811 | -43.19107 | 22193 ft | 425 kts | 37° |
| 2026-04-24 11:21 | -18.96436 | -43.17229 | 22584 ft | 427 kts | 37° |
| 2026-04-24 11:21 | -18.94076 | -43.15364 | 22969 ft | 430 kts | 37° |
| 2026-04-24 11:21 | -18.91641 | -43.13440 | 23331 ft | 433 kts | 37° |
| 2026-04-24 11:21 | -18.89225 | -43.11532 | 23675 ft | 436 kts | 37° |
| 2026-04-24 11:22 | -18.86821 | -43.09632 | 24009 ft | 438 kts | 37° |
| 2026-04-24 11:22 | -18.84370 | -43.07697 | 24318 ft | 441 kts | 37° |
| 2026-04-24 11:22 | -18.81898 | -43.05746 | 24668 ft | 443 kts | 37° |
| 2026-04-24 11:22 | -18.79429 | -43.03798 | 24999 ft | 445 kts | 37° |
| 2026-04-24 11:23 | -18.76941 | -43.01837 | 25316 ft | 447 kts | 37° |
| 2026-04-24 11:23 | -18.74433 | -42.99861 | 25594 ft | 450 kts | 37° |
| 2026-04-24 11:23 | -18.71921 | -42.97884 | 25880 ft | 453 kts | 37° |
| 2026-04-24 11:23 | -18.69382 | -42.95885 | 26155 ft | 455 kts | 37° |
| 2026-04-24 11:24 | -18.66837 | -42.93882 | 26430 ft | 458 kts | 37° |
| 2026-04-24 11:24 | -18.64282 | -42.91872 | 26737 ft | 459 kts | 37° |
| 2026-04-24 11:24 | -18.61721 | -42.89857 | 27009 ft | 461 kts | 37° |
| 2026-04-24 11:24 | -18.59142 | -42.87829 | 27263 ft | 463 kts | 37° |
| 2026-04-24 11:25 | -18.56589 | -42.85822 | 27540 ft | 465 kts | 37° |
| 2026-04-24 11:25 | -18.53952 | -42.83750 | 27806 ft | 467 kts | 37° |
| 2026-04-24 11:25 | -18.51343 | -42.81700 | 28055 ft | 469 kts | 37° |
| 2026-04-24 11:25 | -18.48751 | -42.79664 | 28316 ft | 471 kts | 37° |
| 2026-04-24 11:26 | -18.46092 | -42.77576 | 28586 ft | 472 kts | 37° |
| 2026-04-24 11:26 | -18.43485 | -42.75528 | 28834 ft | 474 kts | 37° |
| 2026-04-24 11:26 | -18.40835 | -42.73446 | 29077 ft | 476 kts | 37° |
| 2026-04-24 11:26 | -18.38175 | -42.71358 | 29283 ft | 478 kts | 37° |
| 2026-04-24 11:27 | -18.35505 | -42.69263 | 29527 ft | 480 kts | 37° |
| 2026-04-24 11:27 | -18.32827 | -42.67162 | 29780 ft | 481 kts | 37° |
| 2026-04-24 11:27 | -18.30142 | -42.65057 | 29986 ft | 482 kts | 37° |
| 2026-04-24 11:27 | -18.27442 | -42.62940 | 30178 ft | 484 kts | 37° |
| 2026-04-24 11:28 | -18.24737 | -42.60821 | 30430 ft | 485 kts | 37° |
| 2026-04-24 11:28 | -18.22026 | -42.58699 | 30747 ft | 484 kts | 37° |
| 2026-04-24 11:28 | -18.19333 | -42.56590 | 31063 ft | 483 kts | 37° |
| 2026-04-24 11:28 | -18.16639 | -42.54484 | 31360 ft | 482 kts | 37° |
| 2026-04-24 11:29 | -18.13942 | -42.52374 | 31620 ft | 483 kts | 37° |
| 2026-04-24 11:29 | -18.11249 | -42.50268 | 31913 ft | 482 kts | 37° |
| 2026-04-24 11:29 | -18.08558 | -42.48164 | 32246 ft | 482 kts | 37° |
| 2026-04-24 11:29 | -18.05873 | -42.46067 | 32556 ft | 481 kts | 37° |
| 2026-04-24 11:30 | -18.03189 | -42.43970 | 32828 ft | 481 kts | 37° |
| 2026-04-24 11:30 | -18.00497 | -42.41868 | 33105 ft | 481 kts | 37° |
| 2026-04-24 11:30 | -17.97813 | -42.39773 | 33399 ft | 481 kts | 37° |
| 2026-04-24 11:30 | -17.95133 | -42.37683 | 33721 ft | 480 kts | 37° |
| 2026-04-24 11:31 | -17.92457 | -42.35596 | 34049 ft | 478 kts | 37° |
| 2026-04-24 11:31 | -17.89784 | -42.33512 | 34290 ft | 479 kts | 37° |
| 2026-04-24 11:31 | -17.87109 | -42.31427 | 34558 ft | 479 kts | 37° |
| 2026-04-24 11:31 | -17.84437 | -42.29346 | 34889 ft | 477 kts | 37° |
| 2026-04-24 11:32 | -17.81777 | -42.27276 | 35179 ft | 476 kts | 37° |
| 2026-04-24 11:32 | -17.79103 | -42.25194 | 35161 ft | 480 kts | 37° |
| 2026-04-24 11:32 | -17.73742 | -42.21024 | 35166 ft | 477 kts | 37° |
| 2026-04-24 11:33 | -17.69336 | -42.17600 | 35169 ft | 472 kts | 37° |
| 2026-04-24 11:33 | -17.63210 | -42.12841 | 35176 ft | 471 kts | 37° |
| 2026-04-24 11:34 | -17.57940 | -42.08750 | 35174 ft | 471 kts | 37° |
| 2026-04-24 11:34 | -17.52670 | -42.04663 | 35167 ft | 472 kts | 37° |
| 2026-04-24 11:35 | -17.48241 | -42.01229 | 35167 ft | 472 kts | 37° |
| 2026-04-24 11:35 | -17.42965 | -41.97141 | 35168 ft | 472 kts | 37° |
| 2026-04-24 11:36 | -17.37718 | -41.93075 | 35167 ft | 472 kts | 37° |
| 2026-04-24 11:36 | -17.32432 | -41.88980 | 35164 ft | 473 kts | 38° |
| 2026-04-24 11:37 | -17.27145 | -41.84888 | 35165 ft | 472 kts | 38° |
| 2026-04-24 11:37 | -17.21867 | -41.80804 | 35165 ft | 472 kts | 38° |
| 2026-04-24 11:38 | -17.16593 | -41.76729 | 35170 ft | 471 kts | 38° |
| 2026-04-24 11:38 | -17.11321 | -41.72656 | 35165 ft | 471 kts | 38° |
| 2026-04-24 11:39 | -17.06057 | -41.68592 | 35168 ft | 470 kts | 38° |
| 2026-04-24 11:39 | -17.00797 | -41.64534 | 35159 ft | 469 kts | 38° |
| 2026-04-24 11:40 | -16.95552 | -41.60490 | 35154 ft | 468 kts | 38° |
| 2026-04-24 11:40 | -16.90309 | -41.56451 | 35158 ft | 467 kts | 38° |
| 2026-04-24 11:41 | -16.85120 | -41.52457 | 35151 ft | 466 kts | 38° |
| 2026-04-24 11:41 | -16.79904 | -41.48445 | 35158 ft | 465 kts | 38° |
| 2026-04-24 11:42 | -16.74701 | -41.44444 | 35157 ft | 464 kts | 38° |
| 2026-04-24 11:42 | -16.69509 | -41.40454 | 35158 ft | 463 kts | 38° |
| 2026-04-24 11:43 | -16.64327 | -41.36447 | 35146 ft | 463 kts | 38° |
| 2026-04-24 11:43 | -16.59164 | -41.32438 | 35141 ft | 463 kts | 38° |
| 2026-04-24 11:44 | -16.54002 | -41.28433 | 35146 ft | 462 kts | 38° |
| 2026-04-24 11:44 | -16.48841 | -41.24433 | 35149 ft | 462 kts | 38° |
| 2026-04-24 11:45 | -16.43682 | -41.20439 | 35142 ft | 462 kts | 38° |
| 2026-04-24 11:45 | -16.38515 | -41.16442 | 35133 ft | 463 kts | 38° |
| 2026-04-24 11:46 | -16.33377 | -41.12472 | 35117 ft | 463 kts | 38° |
| 2026-04-24 11:46 | -16.28207 | -41.08477 | 35121 ft | 463 kts | 38° |
| 2026-04-24 11:47 | -16.23028 | -41.04478 | 35121 ft | 463 kts | 38° |
| 2026-04-24 11:47 | -16.17856 | -41.00488 | 35122 ft | 463 kts | 38° |
| 2026-04-24 11:48 | -16.12677 | -40.96495 | 35122 ft | 463 kts | 38° |
| 2026-04-24 11:48 | -16.07495 | -40.92502 | 35119 ft | 463 kts | 38° |
| 2026-04-24 11:49 | -16.02319 | -40.88515 | 35110 ft | 463 kts | 38° |
| 2026-04-24 11:49 | -15.97134 | -40.84528 | 35111 ft | 463 kts | 38° |
| 2026-04-24 11:50 | -15.91951 | -40.80542 | 35112 ft | 463 kts | 39° |
| 2026-04-24 11:50 | -15.86815 | -40.76595 | 35099 ft | 461 kts | 39° |
| 2026-04-24 11:51 | -15.81661 | -40.72636 | 35102 ft | 460 kts | 39° |
| 2026-04-24 11:51 | -15.76517 | -40.68689 | 35101 ft | 458 kts | 39° |
| 2026-04-24 11:52 | -15.71396 | -40.64762 | 35097 ft | 457 kts | 39° |
| 2026-04-24 11:52 | -15.66318 | -40.60868 | 35103 ft | 456 kts | 39° |
| 2026-04-24 11:53 | -15.61182 | -40.56934 | 35103 ft | 456 kts | 39° |
| 2026-04-24 11:53 | -15.56112 | -40.53052 | 35097 ft | 456 kts | 39° |
| 2026-04-24 11:54 | -15.51009 | -40.49148 | 35105 ft | 456 kts | 39° |
| 2026-04-24 11:54 | -15.45898 | -40.45241 | 35104 ft | 456 kts | 39° |
| 2026-04-24 11:55 | -15.40782 | -40.41331 | 35097 ft | 457 kts | 39° |
| 2026-04-24 11:55 | -15.35658 | -40.37417 | 35097 ft | 458 kts | 39° |
| 2026-04-24 11:56 | -15.30520 | -40.33495 | 35091 ft | 459 kts | 39° |
| 2026-04-24 11:56 | -15.25374 | -40.29573 | 35097 ft | 459 kts | 39° |
| 2026-04-24 11:57 | -15.20226 | -40.25651 | 35098 ft | 459 kts | 39° |
| 2026-04-24 11:57 | -15.15075 | -40.21731 | 35087 ft | 459 kts | 39° |
| 2026-04-24 11:58 | -15.09937 | -40.17820 | 35096 ft | 458 kts | 39° |
| 2026-04-24 11:58 | -15.04839 | -40.13941 | 35087 ft | 458 kts | 39° |
| 2026-04-24 11:59 | -14.99721 | -40.10050 | 35096 ft | 456 kts | 39° |
| 2026-04-24 11:59 | -14.94609 | -40.06165 | 35079 ft | 455 kts | 39° |
| 2026-04-24 12:00 | -14.89510 | -40.02295 | 35092 ft | 454 kts | 39° |
| 2026-04-24 12:00 | -14.84425 | -39.98435 | 35077 ft | 453 kts | 39° |
| 2026-04-24 12:01 | -14.79259 | -39.94517 | 35078 ft | 452 kts | 39° |
| 2026-04-24 12:01 | -14.74306 | -39.90763 | 35074 ft | 452 kts | 39° |
| 2026-04-24 12:02 | -14.69233 | -39.86920 | 35071 ft | 452 kts | 39° |
| 2026-04-24 12:02 | -14.64163 | -39.83081 | 35072 ft | 452 kts | 39° |
| 2026-04-24 12:03 | -14.59093 | -39.79244 | 35074 ft | 451 kts | 39° |
| 2026-04-24 12:03 | -14.54026 | -39.75412 | 35072 ft | 451 kts | 39° |
| 2026-04-24 12:04 | -14.48953 | -39.71578 | 35070 ft | 451 kts | 39° |
| 2026-04-24 12:04 | -14.43891 | -39.67754 | 35084 ft | 451 kts | 39° |
| 2026-04-24 12:05 | -14.38818 | -39.63924 | 35073 ft | 451 kts | 39° |
| 2026-04-24 12:05 | -14.33994 | -39.60283 | 35073 ft | 452 kts | 39° |
| 2026-04-24 12:06 | -14.28922 | -39.56465 | 35080 ft | 452 kts | 39° |
| 2026-04-24 12:06 | -14.23839 | -39.52656 | 35069 ft | 452 kts | 39° |
| 2026-04-24 12:07 | -14.18750 | -39.48847 | 35073 ft | 452 kts | 39° |
| 2026-04-24 12:07 | -14.13664 | -39.45040 | 35074 ft | 451 kts | 39° |
| 2026-04-24 12:08 | -14.08584 | -39.41237 | 35057 ft | 451 kts | 39° |
| 2026-04-24 12:08 | -14.06159 | -39.39421 | 35071 ft | 451 kts | 39° |
| 2026-04-24 12:09 | -14.01074 | -39.35617 | 35065 ft | 451 kts | 39° |
| 2026-04-24 12:09 | -13.96848 | -39.32460 | 35067 ft | 451 kts | 39° |
| 2026-04-24 12:10 | -13.91771 | -39.28666 | 35070 ft | 451 kts | 39° |
| 2026-04-24 12:11 | -13.84155 | -39.22981 | 35063 ft | 451 kts | 39° |
| 2026-04-24 12:11 | -13.79082 | -39.19193 | 35059 ft | 451 kts | 38° |
| 2026-04-24 12:12 | -13.74003 | -39.15405 | 35065 ft | 451 kts | 38° |
| 2026-04-24 12:12 | -13.68924 | -39.11620 | 35064 ft | 451 kts | 38° |
| 2026-04-24 12:13 | -13.63835 | -39.07827 | 35064 ft | 451 kts | 38° |
| 2026-04-24 12:13 | -13.58744 | -39.04037 | 35067 ft | 452 kts | 38° |
| 2026-04-24 12:14 | -13.53640 | -39.00258 | 35067 ft | 452 kts | 38° |
| 2026-04-24 12:14 | -13.48552 | -38.96499 | 35057 ft | 453 kts | 38° |
| 2026-04-24 12:15 | -13.43438 | -38.92720 | 35053 ft | 454 kts | 38° |
| 2026-04-24 12:15 | -13.38309 | -38.88929 | 35050 ft | 454 kts | 38° |
| 2026-04-24 12:16 | -13.33174 | -38.85137 | 35056 ft | 454 kts | 38° |
| 2026-04-24 12:16 | -13.28050 | -38.81355 | 35053 ft | 454 kts | 38° |
| 2026-04-24 12:17 | -13.22919 | -38.77570 | 35053 ft | 454 kts | 38° |
| 2026-04-24 12:17 | -13.17790 | -38.73787 | 35053 ft | 454 kts | 38° |
| 2026-04-24 12:18 | -13.12660 | -38.70005 | 35056 ft | 454 kts | 38° |
| 2026-04-24 12:18 | -13.07816 | -38.66439 | 35049 ft | 454 kts | 38° |
| 2026-04-24 12:19 | -13.02685 | -38.62661 | 35044 ft | 454 kts | 38° |
| 2026-04-24 12:19 | -12.97558 | -38.58888 | 35049 ft | 453 kts | 38° |
| 2026-04-24 12:20 | -12.92432 | -38.55116 | 35046 ft | 454 kts | 38° |
| 2026-04-24 12:20 | -12.87308 | -38.51348 | 35047 ft | 453 kts | 38° |
| 2026-04-24 12:21 | -12.82186 | -38.47583 | 35045 ft | 453 kts | 38° |
| 2026-04-24 12:21 | -12.77019 | -38.43869 | 35039 ft | 454 kts | 37° |
| 2026-04-24 12:22 | -12.71888 | -38.40087 | 35051 ft | 452 kts | 38° |
| 2026-04-24 12:22 | -12.66799 | -38.36330 | 35025 ft | 450 kts | 39° |
| 2026-04-24 12:23 | -12.61735 | -38.32506 | 35041 ft | 455 kts | 37° |
| 2026-04-24 12:23 | -12.56551 | -38.28767 | 35057 ft | 454 kts | 39° |
| 2026-04-24 12:24 | -12.51484 | -38.24971 | 35050 ft | 453 kts | 38° |
| 2026-04-24 12:24 | -12.46333 | -38.21260 | 35029 ft | 453 kts | 38° |
| 2026-04-24 12:25 | -12.41174 | -38.17588 | 35019 ft | 449 kts | 37° |
| 2026-04-24 12:25 | -12.36101 | -38.13868 | 35064 ft | 451 kts | 39° |
| 2026-04-24 12:26 | -12.31015 | -38.10053 | 35063 ft | 454 kts | 37° |
| 2026-04-24 12:26 | -12.25863 | -38.06309 | 35052 ft | 453 kts | 38° |
| 2026-04-24 12:27 | -12.20713 | -38.02563 | 35055 ft | 453 kts | 38° |
| 2026-04-24 12:27 | -12.15579 | -37.98825 | 35048 ft | 452 kts | 38° |
| 2026-04-24 12:28 | -12.10494 | -37.95094 | 35067 ft | 453 kts | 38° |
| 2026-04-24 12:28 | -12.05368 | -37.91363 | 35053 ft | 451 kts | 38° |
| 2026-04-24 12:29 | -12.00197 | -37.87642 | 35030 ft | 457 kts | 38° |
| 2026-04-24 12:29 | -11.95044 | -37.83854 | 35058 ft | 458 kts | 38° |
| 2026-04-24 12:30 | -11.89854 | -37.80040 | 35020 ft | 459 kts | 38° |
| 2026-04-24 12:30 | -11.84712 | -37.76243 | 35022 ft | 456 kts | 38° |
| 2026-04-24 12:31 | -11.79535 | -37.72550 | 35043 ft | 455 kts | 36° |
| 2026-04-24 12:31 | -11.74357 | -37.68832 | 34973 ft | 455 kts | 37° |
| 2026-04-24 12:32 | -11.69204 | -37.65157 | 35027 ft | 451 kts | 38° |
| 2026-04-24 12:32 | -11.64089 | -37.61435 | 35017 ft | 452 kts | 38° |
| 2026-04-24 12:33 | -11.58964 | -37.57723 | 35003 ft | 452 kts | 37° |
| 2026-04-24 12:33 | -11.53906 | -37.54010 | 35042 ft | 453 kts | 38° |
| 2026-04-24 12:34 | -11.48783 | -37.50319 | 35053 ft | 450 kts | 37° |
| 2026-04-24 12:34 | -11.43632 | -37.46581 | 35025 ft | 452 kts | 38° |
| 2026-04-24 12:35 | -11.38536 | -37.42874 | 35022 ft | 452 kts | 38° |
| 2026-04-24 12:35 | -11.33377 | -37.39183 | 35019 ft | 453 kts | 37° |
| 2026-04-24 12:36 | -11.28261 | -37.35512 | 35017 ft | 454 kts | 36° |
| 2026-04-24 12:36 | -11.23084 | -37.31805 | 35062 ft | 456 kts | 36° |
| 2026-04-24 12:37 | -11.17890 | -37.28052 | 35009 ft | 459 kts | 36° |
| 2026-04-24 12:37 | -11.12690 | -37.24302 | 35017 ft | 457 kts | 38° |
| 2026-04-24 12:38 | -11.07511 | -37.20493 | 34712 ft | 465 kts | 37° |
| 2026-04-24 12:38 | -11.04853 | -37.18582 | 34136 ft | 465 kts | 37° |
| 2026-04-24 12:38 | -11.02245 | -37.16732 | 33569 ft | 461 kts | 36° |
| 2026-04-24 12:39 | -10.94500 | -37.11178 | 32134 ft | 448 kts | 37° |
| 2026-04-24 12:39 | -10.91963 | -37.09359 | 31642 ft | 444 kts | 37° |
| 2026-04-24 12:39 | -10.89448 | -37.07557 | 31169 ft | 440 kts | 37° |
| 2026-04-24 12:40 | -10.86953 | -37.05769 | 30694 ft | 437 kts | 37° |
| 2026-04-24 12:40 | -10.84484 | -37.04000 | 30224 ft | 433 kts | 37° |
| 2026-04-24 12:40 | -10.82027 | -37.02239 | 29761 ft | 429 kts | 37° |
| 2026-04-24 12:40 | -10.79593 | -37.00497 | 29274 ft | 426 kts | 37° |
| 2026-04-24 12:41 | -10.77181 | -36.98770 | 28790 ft | 422 kts | 37° |
| 2026-04-24 12:41 | -10.74788 | -36.97058 | 28312 ft | 419 kts | 37° |
| 2026-04-24 12:41 | -10.72412 | -36.95357 | 27832 ft | 416 kts | 37° |
| 2026-04-24 12:41 | -10.70056 | -36.93670 | 27349 ft | 413 kts | 37° |
| 2026-04-24 12:42 | -10.67717 | -36.91997 | 26884 ft | 410 kts | 37° |
| 2026-04-24 12:42 | -10.65392 | -36.90334 | 26417 ft | 407 kts | 37° |
| 2026-04-24 12:42 | -10.63082 | -36.88682 | 25950 ft | 403 kts | 37° |
| 2026-04-24 12:42 | -10.60798 | -36.87049 | 25493 ft | 400 kts | 37° |
| 2026-04-24 12:43 | -10.58529 | -36.85427 | 25031 ft | 397 kts | 37° |
| 2026-04-24 12:43 | -10.56277 | -36.83817 | 24561 ft | 394 kts | 37° |
| 2026-04-24 12:43 | -10.54046 | -36.82223 | 24116 ft | 392 kts | 37° |
| 2026-04-24 12:43 | -10.51820 | -36.80632 | 23660 ft | 389 kts | 37° |
| 2026-04-24 12:44 | -10.49616 | -36.79057 | 23211 ft | 386 kts | 37° |
| 2026-04-24 12:44 | -10.47427 | -36.77493 | 22768 ft | 383 kts | 37° |
| 2026-04-24 12:44 | -10.45251 | -36.75939 | 22314 ft | 381 kts | 37° |
| 2026-04-24 12:44 | -10.43094 | -36.74399 | 21874 ft | 378 kts | 37° |
| 2026-04-24 12:45 | -10.40978 | -36.72889 | 21433 ft | 375 kts | 37° |
| 2026-04-24 12:45 | -10.38849 | -36.71369 | 21002 ft | 373 kts | 37° |
| 2026-04-24 12:45 | -10.36733 | -36.69859 | 20570 ft | 370 kts | 37° |
| 2026-04-24 12:45 | -10.34635 | -36.68362 | 20132 ft | 367 kts | 37° |
| 2026-04-24 12:46 | -10.32551 | -36.66875 | 19705 ft | 365 kts | 37° |
| 2026-04-24 12:46 | -10.30479 | -36.65397 | 19277 ft | 363 kts | 37° |
| 2026-04-24 12:46 | -10.28421 | -36.63928 | 18849 ft | 361 kts | 36° |
| 2026-04-24 12:46 | -10.26376 | -36.62470 | 18424 ft | 358 kts | 36° |
| 2026-04-24 12:47 | -10.24340 | -36.61017 | 18000 ft | 356 kts | 36° |
| 2026-04-24 12:47 | -10.22324 | -36.59579 | 17592 ft | 353 kts | 36° |
| 2026-04-24 12:47 | -10.20315 | -36.58147 | 17172 ft | 352 kts | 36° |
| 2026-04-24 12:47 | -10.18320 | -36.56725 | 16752 ft | 349 kts | 36° |
| 2026-04-24 12:48 | -10.16341 | -36.55315 | 16340 ft | 347 kts | 36° |
| 2026-04-24 12:48 | -10.14395 | -36.53879 | 15925 ft | 345 kts | 39° |
| 2026-04-24 12:48 | -10.12567 | -36.52364 | 15525 ft | 342 kts | 42° |
| 2026-04-24 12:48 | -10.10767 | -36.50800 | 15121 ft | 339 kts | 43° |
| 2026-04-24 12:49 | -10.08985 | -36.49236 | 14716 ft | 337 kts | 43° |
| 2026-04-24 12:49 | -10.07219 | -36.47688 | 14315 ft | 335 kts | 43° |
| 2026-04-24 12:49 | -10.05458 | -36.46154 | 13919 ft | 333 kts | 43° |
| 2026-04-24 12:49 | -10.03704 | -36.44633 | 13523 ft | 331 kts | 43° |
| 2026-04-24 12:50 | -10.01955 | -36.43122 | 13121 ft | 329 kts | 43° |
| 2026-04-24 12:50 | -10.00222 | -36.41628 | 12728 ft | 326 kts | 43° |
| 2026-04-24 12:50 | -9.98495 | -36.40141 | 12336 ft | 324 kts | 43° |
| 2026-04-24 12:50 | -9.96783 | -36.38668 | 11950 ft | 322 kts | 43° |
| 2026-04-24 12:51 | -9.95075 | -36.37199 | 11559 ft | 320 kts | 43° |
| 2026-04-24 12:51 | -9.93403 | -36.35761 | 11176 ft | 318 kts | 43° |
| 2026-04-24 12:51 | -9.91718 | -36.34314 | 10792 ft | 317 kts | 43° |
| 2026-04-24 12:51 | -9.90045 | -36.32876 | 10480 ft | 313 kts | 43° |
| 2026-04-24 12:52 | -9.88406 | -36.31470 | 10346 ft | 303 kts | 43° |
| 2026-04-24 12:52 | -9.86820 | -36.30109 | 10199 ft | 294 kts | 43° |
| 2026-04-24 12:52 | -9.85279 | -36.28786 | 10074 ft | 285 kts | 43° |
| 2026-04-24 12:52 | -9.83781 | -36.27500 | 9855 ft | 281 kts | 43° |
| 2026-04-24 12:53 | -9.82297 | -36.26225 | 9573 ft | 278 kts | 43° |
| 2026-04-24 12:53 | -9.80823 | -36.24958 | 9284 ft | 277 kts | 43° |
| 2026-04-24 12:53 | -9.79358 | -36.23700 | 8985 ft | 276 kts | 43° |
| 2026-04-24 12:53 | -9.77901 | -36.22448 | 8696 ft | 274 kts | 43° |
| 2026-04-24 12:54 | -9.76447 | -36.21200 | 8405 ft | 272 kts | 43° |
| 2026-04-24 12:54 | -9.75018 | -36.19973 | 8118 ft | 273 kts | 43° |
| 2026-04-24 12:54 | -9.73551 | -36.18714 | 7817 ft | 273 kts | 43° |
| 2026-04-24 12:54 | -9.72116 | -36.17483 | 7516 ft | 274 kts | 43° |
| 2026-04-24 12:55 | -9.70659 | -36.16231 | 7249 ft | 275 kts | 42° |
| 2026-04-24 12:55 | -9.69180 | -36.14961 | 6960 ft | 284 kts | 42° |
| 2026-04-24 12:55 | -9.67668 | -36.13672 | 6633 ft | 285 kts | 43° |
| 2026-04-24 12:55 | -9.66163 | -36.12380 | 6451 ft | 280 kts | 43° |
| 2026-04-24 12:56 | -9.64701 | -36.11124 | 6265 ft | 272 kts | 43° |
| 2026-04-24 12:56 | -9.63301 | -36.09923 | 6175 ft | 253 kts | 42° |
| 2026-04-24 12:56 | -9.61996 | -36.08805 | 6051 ft | 238 kts | 43° |
| 2026-04-24 12:56 | -9.60776 | -36.07760 | 5954 ft | 222 kts | 43° |
| 2026-04-24 12:57 | -9.59603 | -36.06756 | 5859 ft | 223 kts | 43° |
| 2026-04-24 12:57 | -9.58397 | -36.05719 | 5647 ft | 231 kts | 43° |
| 2026-04-24 12:57 | -9.57161 | -36.04659 | 5406 ft | 231 kts | 43° |
| 2026-04-24 12:57 | -9.55965 | -36.03646 | 5191 ft | 218 kts | 40° |
| 2026-04-24 12:58 | -9.54721 | -36.02843 | 4940 ft | 207 kts | 32° |
| 2026-04-24 12:58 | -9.53497 | -36.02142 | 4732 ft | 197 kts | 33° |
| 2026-04-24 12:58 | -9.52340 | -36.01471 | 4546 ft | 187 kts | 33° |
| 2026-04-24 12:58 | -9.51601 | -36.01037 | 4409 ft | 183 kts | 34° |
| 2026-04-24 12:59 | -9.50161 | -36.00186 | 4155 ft | 179 kts | 34° |
| 2026-04-24 12:59 | -9.49083 | -35.99543 | 3980 ft | 180 kts | 34° |
| 2026-04-24 12:59 | -9.48089 | -35.98782 | 3796 ft | 178 kts | 53° |
| 2026-04-24 12:59 | -9.47694 | -35.97639 | 3641 ft | 175 kts | 94° |
| 2026-04-24 13:00 | -9.47846 | -35.96832 | 3615 ft | 173 kts | 104° |
| 2026-04-24 13:00 | -9.48098 | -35.95611 | 3344 ft | 178 kts | 101° |
| 2026-04-24 13:00 | -9.48287 | -35.94407 | 3131 ft | 164 kts | 99° |
| 2026-04-24 13:00 | -9.48456 | -35.93318 | 2913 ft | 148 kts | 101° |
| 2026-04-24 13:01 | -9.48631 | -35.92346 | 2759 ft | 139 kts | 101° |
| 2026-04-24 13:01 | -9.48811 | -35.91376 | 2560 ft | 140 kts | 101° |
| 2026-04-24 13:01 | -9.48988 | -35.90420 | 2373 ft | 137 kts | 101° |
| 2026-04-24 13:01 | -9.49164 | -35.89466 | 2195 ft | 138 kts | 101° |
| 2026-04-24 13:02 | -9.49340 | -35.88514 | 2010 ft | 137 kts | 101° |
| 2026-04-24 13:02 | -9.49517 | -35.87564 | 1841 ft | 138 kts | 102° |
| 2026-04-24 13:02 | -9.49698 | -35.86602 | 1653 ft | 139 kts | 102° |
| 2026-04-24 13:02 | -9.49876 | -35.85648 | 1467 ft | 137 kts | 102° |
| 2026-04-24 13:03 | -9.50048 | -35.84709 | 1287 ft | 135 kts | 102° |
| 2026-04-24 13:03 | -9.50224 | -35.83767 | 1101 ft | 137 kts | 102° |
| 2026-04-24 13:03 | -9.50398 | -35.82820 | 936 ft | 137 kts | 101° |
| 2026-04-24 13:03 | -9.50576 | -35.81862 | 757 ft | 139 kts | 101° |
| 2026-04-24 13:04 | -9.50755 | -35.80895 | 543 ft | 139 kts | 102° |
| 2026-04-24 13:04 | -9.50938 | -35.79944 | 406 ft | 131 kts | 101° |
| 2026-04-24 13:04 | -9.51083 | -35.79177 | 398 ft | 71 kts | 101° |
| 2026-04-24 13:04 | -9.51179 | -35.78923 | 399 ft | 30 kts | 124° |
| 2026-04-24 13:05 | -9.51280 | -35.78824 | 400 ft | 17 kts | 183° |
| 2026-04-24 13:05 | -9.51294 | -35.78912 | 400 ft | 9 kts | 281° |
| 2026-04-24 13:05 | -9.51290 | -35.78976 | 400 ft | 9 kts | 253° |
| 2026-04-24 13:05 | -9.51333 | -35.79021 | 400 ft | 9 kts | 216° |
| 2026-04-24 13:06 | -9.51356 | -35.79075 | 400 ft | 9 kts | 273° |
| 2026-04-24 13:06 | -9.51346 | -35.79134 | 400 ft | 8 kts | 280° |
| 2026-04-24 13:06 | -9.51334 | -35.79201 | 400 ft | 10 kts | 281° |
| 2026-04-24 13:06 | -9.51358 | -35.79240 | 400 ft | 8 kts | 195° |
| 2026-04-24 13:07 | -9.51383 | -35.79245 | 400 ft | 4 kts | 191° |
| 2026-04-24 13:07 | -9.51391 | -35.79247 | 400 ft | 0 kts | 192° |